VOE2UP LDDU-LFQQ
Flight info
| Callsign | VOE2UP |
|---|---|
| Flight time | N/A |
| Altitude | 38000 |
| Route | AMUGO DCT SIRMI DCT GORPA DCT SIMBA DCT MAMOR DCT PETIX DCT BOMBI DCT ADKUV DCT SOGRI UM617 CIV |
| Aircraft | A319/M-SDE3FGHIRWY/LB1 |
Departure
| Time | N/A |
|---|---|
| Airport | Dubrovnik Ruđer Bošković Airport (LDDU) |
Arrival
| Time | 2026-04-27 19:48 |
|---|---|
| Airport | Lille Airport (LFQQ) |
| Time | Latitude | Longitude | Altitude | Speed | Heading |
|---|---|---|---|---|---|
| 2026-04-27 18:39 | 49.05469 | 11.68850 | 38165 ft | 393 kts | 295° |
| 2026-04-27 18:39 | 49.06649 | 11.65070 | 38166 ft | 393 kts | 295° |
| 2026-04-27 18:39 | 49.08999 | 11.57529 | 38169 ft | 393 kts | 295° |
| 2026-04-27 18:40 | 49.11322 | 11.50045 | 38170 ft | 393 kts | 295° |
| 2026-04-27 18:40 | 49.13660 | 11.42483 | 38168 ft | 393 kts | 294° |
| 2026-04-27 18:41 | 49.15984 | 11.34964 | 38168 ft | 393 kts | 294° |
| 2026-04-27 18:41 | 49.18306 | 11.27437 | 38167 ft | 392 kts | 294° |
| 2026-04-27 18:42 | 49.20232 | 11.21150 | 38171 ft | 393 kts | 294° |
| 2026-04-27 18:42 | 49.22947 | 11.12271 | 38172 ft | 393 kts | 294° |
| 2026-04-27 18:43 | 49.25255 | 11.04720 | 38176 ft | 393 kts | 294° |
| 2026-04-27 18:43 | 49.27557 | 10.97162 | 38182 ft | 393 kts | 294° |
| 2026-04-27 18:44 | 49.29865 | 10.89558 | 38183 ft | 392 kts | 294° |
| 2026-04-27 18:44 | 49.32144 | 10.81998 | 38176 ft | 392 kts | 294° |
| 2026-04-27 18:45 | 49.34493 | 10.74434 | 38176 ft | 393 kts | 298° |
| 2026-04-27 18:45 | 49.37252 | 10.67173 | 38171 ft | 393 kts | 298° |
| 2026-04-27 18:46 | 49.39989 | 10.59951 | 38175 ft | 393 kts | 298° |
| 2026-04-27 18:46 | 49.42745 | 10.52670 | 38165 ft | 394 kts | 298° |
| 2026-04-27 18:47 | 49.45487 | 10.45379 | 38169 ft | 394 kts | 298° |
| 2026-04-27 18:47 | 49.48213 | 10.38106 | 38169 ft | 394 kts | 298° |
| 2026-04-27 18:48 | 49.50949 | 10.30802 | 38168 ft | 394 kts | 298° |
| 2026-04-27 18:48 | 49.53684 | 10.23477 | 38179 ft | 394 kts | 298° |
| 2026-04-27 18:49 | 49.56406 | 10.16180 | 38178 ft | 394 kts | 298° |
| 2026-04-27 18:49 | 49.59132 | 10.08828 | 38186 ft | 394 kts | 298° |
| 2026-04-27 18:50 | 49.61832 | 10.01522 | 38186 ft | 394 kts | 298° |
| 2026-04-27 18:50 | 49.64540 | 9.94175 | 38182 ft | 394 kts | 298° |
| 2026-04-27 18:51 | 49.67245 | 9.86831 | 38190 ft | 394 kts | 298° |
| 2026-04-27 18:51 | 49.69957 | 9.79447 | 38183 ft | 394 kts | 297° |
| 2026-04-27 18:52 | 49.72481 | 9.71971 | 38189 ft | 394 kts | 293° |
| 2026-04-27 18:53 | 49.75798 | 9.60385 | 38187 ft | 394 kts | 292° |
| 2026-04-27 18:53 | 49.77967 | 9.52633 | 38189 ft | 394 kts | 292° |
| 2026-04-27 18:54 | 49.80168 | 9.44856 | 38181 ft | 394 kts | 292° |
| 2026-04-27 18:54 | 49.82375 | 9.37075 | 38183 ft | 394 kts | 292° |
| 2026-04-27 18:55 | 49.84560 | 9.29343 | 38186 ft | 394 kts | 292° |
| 2026-04-27 18:55 | 49.86744 | 9.21593 | 38182 ft | 394 kts | 292° |
| 2026-04-27 18:56 | 49.88932 | 9.13790 | 38180 ft | 393 kts | 292° |
| 2026-04-27 18:56 | 49.91097 | 9.06030 | 38183 ft | 394 kts | 292° |
| 2026-04-27 18:57 | 49.93268 | 8.98203 | 38173 ft | 394 kts | 292° |
| 2026-04-27 18:57 | 49.95439 | 8.90364 | 38177 ft | 394 kts | 292° |
| 2026-04-27 18:58 | 49.97598 | 8.82576 | 38182 ft | 395 kts | 292° |
| 2026-04-27 18:58 | 49.99771 | 8.74721 | 38175 ft | 395 kts | 291° |
| 2026-04-27 18:59 | 50.01916 | 8.66916 | 38172 ft | 395 kts | 291° |
| 2026-04-27 18:59 | 50.04070 | 8.59030 | 38172 ft | 395 kts | 291° |
| 2026-04-27 19:00 | 50.06213 | 8.51170 | 38182 ft | 395 kts | 291° |
| 2026-04-27 19:00 | 50.08338 | 8.43340 | 38194 ft | 395 kts | 291° |
| 2026-04-27 19:01 | 50.10479 | 8.35444 | 38199 ft | 395 kts | 291° |
| 2026-04-27 19:01 | 50.12622 | 8.27531 | 38203 ft | 395 kts | 291° |
| 2026-04-27 19:02 | 50.14741 | 8.19662 | 38202 ft | 395 kts | 291° |
| 2026-04-27 19:02 | 50.16874 | 8.11722 | 38201 ft | 395 kts | 291° |
| 2026-04-27 19:03 | 50.18977 | 8.03847 | 38203 ft | 395 kts | 291° |
| 2026-04-27 19:03 | 50.21087 | 7.95914 | 38205 ft | 395 kts | 291° |
| 2026-04-27 19:04 | 50.23177 | 7.88041 | 38207 ft | 395 kts | 291° |
| 2026-04-27 19:04 | 50.25279 | 7.80102 | 38195 ft | 394 kts | 291° |
| 2026-04-27 19:05 | 50.27370 | 7.72161 | 38199 ft | 394 kts | 291° |
| 2026-04-27 19:05 | 50.29438 | 7.64268 | 38188 ft | 394 kts | 291° |
| 2026-04-27 19:06 | 50.31515 | 7.56322 | 38189 ft | 394 kts | 291° |
| 2026-04-27 19:06 | 50.33599 | 7.48373 | 38187 ft | 394 kts | 291° |
| 2026-04-27 19:07 | 50.35655 | 7.40472 | 38182 ft | 394 kts | 290° |
| 2026-04-27 19:07 | 50.37709 | 7.32522 | 38182 ft | 394 kts | 290° |
| 2026-04-27 19:08 | 50.39771 | 7.24525 | 38176 ft | 394 kts | 290° |
| 2026-04-27 19:08 | 50.41826 | 7.16547 | 38177 ft | 394 kts | 290° |
| 2026-04-27 19:09 | 50.43873 | 7.08603 | 38177 ft | 395 kts | 290° |
| 2026-04-27 19:09 | 50.45925 | 7.00589 | 38178 ft | 395 kts | 290° |
| 2026-04-27 19:10 | 50.47946 | 6.92619 | 38183 ft | 395 kts | 290° |
| 2026-04-27 19:10 | 50.49982 | 6.84571 | 38189 ft | 395 kts | 290° |
| 2026-04-27 19:11 | 50.51662 | 6.76366 | 38187 ft | 394 kts | 284° |
| 2026-04-27 19:11 | 50.53117 | 6.68102 | 38187 ft | 394 kts | 284° |
| 2026-04-27 19:12 | 50.54575 | 6.59770 | 38187 ft | 395 kts | 284° |
| 2026-04-27 19:12 | 50.56028 | 6.51483 | 38185 ft | 394 kts | 284° |
| 2026-04-27 19:13 | 50.57489 | 6.43154 | 38189 ft | 394 kts | 284° |
| 2026-04-27 19:13 | 50.58932 | 6.34855 | 38185 ft | 394 kts | 284° |
| 2026-04-27 19:14 | 50.60368 | 6.26502 | 38182 ft | 394 kts | 284° |
| 2026-04-27 19:14 | 50.61795 | 6.18201 | 38181 ft | 394 kts | 284° |
| 2026-04-27 19:15 | 50.63226 | 6.09857 | 38182 ft | 394 kts | 284° |
| 2026-04-27 19:15 | 50.64638 | 6.01548 | 38181 ft | 395 kts | 284° |
| 2026-04-27 19:16 | 50.66056 | 5.93169 | 38185 ft | 395 kts | 284° |
| 2026-04-27 19:16 | 50.67473 | 5.84791 | 38182 ft | 395 kts | 284° |
| 2026-04-27 19:17 | 50.68876 | 5.76416 | 38191 ft | 395 kts | 284° |
| 2026-04-27 19:17 | 50.70269 | 5.68063 | 38191 ft | 396 kts | 284° |
| 2026-04-27 19:18 | 50.71665 | 5.59651 | 38186 ft | 396 kts | 284° |
| 2026-04-27 19:18 | 50.73052 | 5.51269 | 38187 ft | 396 kts | 284° |
| 2026-04-27 19:19 | 50.74442 | 5.42826 | 38187 ft | 397 kts | 283° |
| 2026-04-27 19:19 | 50.75819 | 5.34412 | 38193 ft | 397 kts | 283° |
| 2026-04-27 19:20 | 50.77190 | 5.25976 | 38195 ft | 398 kts | 283° |
| 2026-04-27 19:20 | 50.78333 | 5.18911 | 38017 ft | 399 kts | 283° |
| 2026-04-27 19:20 | 50.79014 | 5.14658 | 37746 ft | 397 kts | 283° |
| 2026-04-27 19:21 | 50.79680 | 5.10477 | 37456 ft | 393 kts | 282° |
| 2026-04-27 19:21 | 50.80069 | 5.06240 | 36969 ft | 388 kts | 272° |
| 2026-04-27 19:21 | 50.79971 | 5.01988 | 36486 ft | 384 kts | 263° |
| 2026-04-27 19:21 | 50.79409 | 4.97867 | 35964 ft | 382 kts | 255° |
| 2026-04-27 19:22 | 50.78657 | 4.93897 | 35466 ft | 379 kts | 255° |
| 2026-04-27 19:22 | 50.77910 | 4.89916 | 34957 ft | 376 kts | 255° |
| 2026-04-27 19:22 | 50.77171 | 4.85952 | 34451 ft | 373 kts | 255° |
| 2026-04-27 19:22 | 50.76438 | 4.82026 | 33905 ft | 370 kts | 254° |
| 2026-04-27 19:23 | 50.75720 | 4.78182 | 33402 ft | 366 kts | 254° |
| 2026-04-27 19:23 | 50.75003 | 4.74344 | 32905 ft | 361 kts | 254° |
| 2026-04-27 19:23 | 50.74295 | 4.70571 | 32426 ft | 357 kts | 254° |
| 2026-04-27 19:23 | 50.73596 | 4.66875 | 31964 ft | 353 kts | 253° |
| 2026-04-27 19:24 | 50.72894 | 4.63168 | 31494 ft | 348 kts | 253° |
| 2026-04-27 19:24 | 50.72199 | 4.59514 | 31043 ft | 344 kts | 253° |
| 2026-04-27 19:24 | 50.71512 | 4.55916 | 30601 ft | 340 kts | 253° |
| 2026-04-27 19:24 | 50.70839 | 4.52391 | 30161 ft | 337 kts | 253° |
| 2026-04-27 19:25 | 50.70166 | 4.48867 | 29697 ft | 332 kts | 253° |
| 2026-04-27 19:25 | 50.69502 | 4.45392 | 29280 ft | 328 kts | 253° |
| 2026-04-27 19:25 | 50.68852 | 4.42006 | 28894 ft | 324 kts | 253° |
| 2026-04-27 19:25 | 50.68199 | 4.38609 | 28498 ft | 320 kts | 253° |
| 2026-04-27 19:26 | 50.67554 | 4.35263 | 28117 ft | 316 kts | 253° |
| 2026-04-27 19:26 | 50.66919 | 4.31963 | 27739 ft | 312 kts | 253° |
| 2026-04-27 19:26 | 50.66291 | 4.28707 | 27368 ft | 308 kts | 253° |
| 2026-04-27 19:26 | 50.65678 | 4.25537 | 27003 ft | 306 kts | 253° |
| 2026-04-27 19:27 | 50.65058 | 4.22330 | 26638 ft | 305 kts | 253° |
| 2026-04-27 19:27 | 50.64437 | 4.19127 | 26264 ft | 305 kts | 253° |
| 2026-04-27 19:27 | 50.63817 | 4.15939 | 25892 ft | 304 kts | 253° |
| 2026-04-27 19:27 | 50.63198 | 4.12780 | 25518 ft | 304 kts | 253° |
| 2026-04-27 19:28 | 50.62576 | 4.09601 | 25130 ft | 304 kts | 254° |
| 2026-04-27 19:28 | 50.61951 | 4.06408 | 24733 ft | 303 kts | 254° |
| 2026-04-27 19:28 | 50.61331 | 4.03231 | 24337 ft | 303 kts | 254° |
| 2026-04-27 19:28 | 50.60707 | 4.00054 | 23928 ft | 303 kts | 254° |
| 2026-04-27 19:29 | 50.60089 | 3.96917 | 23483 ft | 302 kts | 254° |
| 2026-04-27 19:29 | 50.59463 | 3.93748 | 23068 ft | 301 kts | 254° |
| 2026-04-27 19:29 | 50.58839 | 3.90604 | 22655 ft | 300 kts | 254° |
| 2026-04-27 19:29 | 50.58217 | 3.87476 | 22257 ft | 298 kts | 254° |
| 2026-04-27 19:30 | 50.57548 | 3.84432 | 21868 ft | 298 kts | 248° |
| 2026-04-27 19:30 | 50.56532 | 3.81591 | 21455 ft | 298 kts | 237° |
| 2026-04-27 19:30 | 50.55252 | 3.79014 | 21080 ft | 298 kts | 234° |
| 2026-04-27 19:30 | 50.53962 | 3.76461 | 20689 ft | 297 kts | 234° |
| 2026-04-27 19:31 | 50.52678 | 3.73917 | 20304 ft | 296 kts | 234° |
| 2026-04-27 19:31 | 50.51401 | 3.71388 | 19916 ft | 295 kts | 234° |
| 2026-04-27 19:31 | 50.50141 | 3.68894 | 19538 ft | 294 kts | 234° |
| 2026-04-27 19:32 | 50.49150 | 3.66933 | 19251 ft | 293 kts | 234° |
| 2026-04-27 19:32 | 50.47882 | 3.64421 | 18883 ft | 292 kts | 234° |
| 2026-04-27 19:32 | 50.46631 | 3.61947 | 18530 ft | 292 kts | 234° |
| 2026-04-27 19:32 | 50.45366 | 3.59446 | 18122 ft | 291 kts | 234° |
| 2026-04-27 19:33 | 50.44105 | 3.56962 | 17756 ft | 289 kts | 234° |
| 2026-04-27 19:33 | 50.43273 | 3.55329 | 17518 ft | 288 kts | 234° |
| 2026-04-27 19:33 | 50.41619 | 3.52081 | 17057 ft | 285 kts | 234° |
| 2026-04-27 19:33 | 50.40378 | 3.49644 | 16708 ft | 284 kts | 234° |
| 2026-04-27 19:34 | 50.39160 | 3.47252 | 16366 ft | 283 kts | 234° |
| 2026-04-27 19:34 | 50.37926 | 3.44830 | 16018 ft | 283 kts | 234° |
| 2026-04-27 19:34 | 50.36696 | 3.42419 | 15684 ft | 282 kts | 234° |
| 2026-04-27 19:34 | 50.35484 | 3.40035 | 15325 ft | 282 kts | 234° |
| 2026-04-27 19:35 | 50.34263 | 3.37625 | 14992 ft | 282 kts | 234° |
| 2026-04-27 19:35 | 50.33056 | 3.35237 | 14643 ft | 282 kts | 234° |
| 2026-04-27 19:35 | 50.31837 | 3.32824 | 14296 ft | 282 kts | 234° |
| 2026-04-27 19:35 | 50.30611 | 3.30407 | 13938 ft | 283 kts | 234° |
| 2026-04-27 19:36 | 50.29386 | 3.27999 | 13561 ft | 282 kts | 233° |
| 2026-04-27 19:36 | 50.28159 | 3.25600 | 13199 ft | 281 kts | 233° |
| 2026-04-27 19:36 | 50.26954 | 3.23245 | 12849 ft | 280 kts | 233° |
| 2026-04-27 19:36 | 50.25735 | 3.20863 | 12497 ft | 279 kts | 233° |
| 2026-04-27 19:37 | 50.24706 | 3.18321 | 12133 ft | 275 kts | 249° |
| 2026-04-27 19:37 | 50.24290 | 3.15465 | 11788 ft | 272 kts | 268° |
| 2026-04-27 19:37 | 50.24516 | 3.12538 | 11437 ft | 271 kts | 287° |
| 2026-04-27 19:37 | 50.25355 | 3.09906 | 11071 ft | 272 kts | 305° |
| 2026-04-27 19:38 | 50.26484 | 3.07580 | 10721 ft | 271 kts | 306° |
| 2026-04-27 19:38 | 50.27624 | 3.05225 | 10364 ft | 271 kts | 306° |
| 2026-04-27 19:38 | 50.28756 | 3.02873 | 9985 ft | 270 kts | 306° |
| 2026-04-27 19:38 | 50.29887 | 3.00517 | 9591 ft | 269 kts | 306° |
| 2026-04-27 19:39 | 50.30997 | 2.98209 | 9214 ft | 268 kts | 307° |
| 2026-04-27 19:39 | 50.32111 | 2.95883 | 8830 ft | 266 kts | 307° |
| 2026-04-27 19:39 | 50.33220 | 2.93565 | 8453 ft | 264 kts | 307° |
| 2026-04-27 19:39 | 50.34321 | 2.91268 | 8062 ft | 262 kts | 307° |
| 2026-04-27 19:40 | 50.35403 | 2.89008 | 7676 ft | 261 kts | 307° |
| 2026-04-27 19:40 | 50.36489 | 2.86740 | 7371 ft | 256 kts | 308° |
| 2026-04-27 19:40 | 50.37530 | 2.84561 | 7240 ft | 244 kts | 308° |
| 2026-04-27 19:40 | 50.38523 | 2.82486 | 7060 ft | 237 kts | 308° |
| 2026-04-27 19:41 | 50.39565 | 2.80482 | 6934 ft | 236 kts | 318° |
| 2026-04-27 19:41 | 50.40926 | 2.79063 | 6792 ft | 235 kts | 337° |
| 2026-04-27 19:41 | 50.42514 | 2.78385 | 6334 ft | 237 kts | 351° |
| 2026-04-27 19:41 | 50.44109 | 2.77934 | 5954 ft | 236 kts | 351° |
| 2026-04-27 19:42 | 50.45730 | 2.77467 | 5616 ft | 234 kts | 351° |
| 2026-04-27 19:42 | 50.47323 | 2.77004 | 5200 ft | 231 kts | 351° |
| 2026-04-27 19:42 | 50.48900 | 2.76544 | 4705 ft | 227 kts | 351° |
| 2026-04-27 19:42 | 50.50391 | 2.76458 | 4497 ft | 208 kts | 16° |
| 2026-04-27 19:43 | 50.51592 | 2.77590 | 4311 ft | 205 kts | 49° |
| 2026-04-27 19:43 | 50.52162 | 2.79598 | 3955 ft | 204 kts | 78° |
| 2026-04-27 19:43 | 50.52442 | 2.81783 | 3626 ft | 202 kts | 77° |
| 2026-04-27 19:43 | 50.52746 | 2.83899 | 3300 ft | 196 kts | 76° |
| 2026-04-27 19:44 | 50.53050 | 2.85963 | 2988 ft | 191 kts | 76° |
| 2026-04-27 19:44 | 50.53347 | 2.87978 | 2745 ft | 189 kts | 76° |
| 2026-04-27 19:44 | 50.53639 | 2.89974 | 2493 ft | 188 kts | 77° |
| 2026-04-27 19:44 | 50.53926 | 2.91942 | 2244 ft | 180 kts | 76° |
| 2026-04-27 19:45 | 50.54201 | 2.93838 | 2009 ft | 176 kts | 76° |
| 2026-04-27 19:45 | 50.54470 | 2.95697 | 1774 ft | 173 kts | 76° |
| 2026-04-27 19:45 | 50.54730 | 2.97493 | 1577 ft | 163 kts | 76° |
| 2026-04-27 19:45 | 50.54969 | 2.99160 | 1351 ft | 145 kts | 75° |
| 2026-04-27 19:46 | 50.55172 | 3.00592 | 1162 ft | 129 kts | 75° |
| 2026-04-27 19:46 | 50.55366 | 3.01939 | 986 ft | 124 kts | 74° |
| 2026-04-27 19:46 | 50.55561 | 3.03256 | 829 ft | 123 kts | 73° |
| 2026-04-27 19:46 | 50.55750 | 3.04566 | 677 ft | 122 kts | 74° |
| 2026-04-27 19:47 | 50.55938 | 3.05876 | 502 ft | 123 kts | 74° |
| 2026-04-27 19:47 | 50.56127 | 3.07190 | 345 ft | 123 kts | 74° |
| 2026-04-27 19:47 | 50.56315 | 3.08496 | 196 ft | 122 kts | 74° |
| 2026-04-27 19:47 | 50.56485 | 3.09681 | 152 ft | 94 kts | 78° |
| 2026-04-27 19:48 | 50.56591 | 3.10427 | 151 ft | 46 kts | 77° |
| 2026-04-27 19:48 | 50.56639 | 3.10764 | 150 ft | 16 kts | 75° |
| 2026-04-27 19:48 | 50.56720 | 3.10796 | 150 ft | 8 kts | 346° |
| 2026-04-27 19:48 | 50.56767 | 3.10779 | 151 ft | 6 kts | 347° |
| 2026-04-27 19:49 | 50.56784 | 3.10773 | 151 ft | 1 kts | 347° |
| 2026-04-27 19:49 | 50.56793 | 3.10770 | 151 ft | 2 kts | 347° |
| 2026-04-27 19:49 | 50.56811 | 3.10759 | 151 ft | 3 kts | 331° |
| 2026-04-27 19:49 | 50.56825 | 3.10721 | 151 ft | 6 kts | 287° |
| 2026-04-27 19:50 | 50.56815 | 3.10611 | 151 ft | 12 kts | 258° |
| 2026-04-27 19:50 | 50.56796 | 3.10479 | 151 ft | 13 kts | 257° |
| 2026-04-27 19:50 | 50.56811 | 3.10351 | 152 ft | 13 kts | 326° |
| 2026-04-27 19:50 | 50.56902 | 3.10310 | 152 ft | 14 kts | 348° |
| 2026-04-27 19:51 | 50.56988 | 3.10354 | 152 ft | 15 kts | 66° |
| 2026-04-27 19:51 | 50.57012 | 3.10519 | 152 ft | 16 kts | 77° |
| 2026-04-27 19:51 | 50.57041 | 3.10689 | 152 ft | 13 kts | 59° |
| 2026-04-27 19:51 | 50.57072 | 3.10807 | 152 ft | 8 kts | 77° |
| 2026-04-27 19:52 | 50.57095 | 3.10834 | 152 ft | 5 kts | 359° |
| 2026-04-27 19:52 | 50.57114 | 3.10828 | 152 ft | 3 kts | 348° |
| 2026-04-27 19:52 | 50.57124 | 3.10824 | 152 ft | 0 kts | 347° |
| 2026-04-27 19:54 | 50.57124 | 3.10825 | 152 ft | 0 kts | 347° |